createdAt,value
2019-06-26T00:00:40.324Z,63529.68
2019-06-26T00:03:06.627Z,63530.56
2019-06-26T00:05:32.871Z,63526.19
2019-06-26T00:07:59.144Z,63533.96
2019-06-26T00:10:25.369Z,63538.88
2019-06-26T00:12:51.548Z,63539.78
2019-06-26T00:15:17.761Z,63535.85
2019-06-26T00:17:44.036Z,63541.09
2019-06-26T00:20:11.648Z,63537.69
2019-06-26T00:22:37.888Z,63546.91
2019-06-26T00:25:05.948Z,63549.21
2019-06-26T00:27:32.177Z,63554.36
2019-06-26T00:29:58.422Z,63551.41
2019-06-26T00:32:24.582Z,63542.84
2019-06-26T00:34:50.789Z,63537.02
2019-06-26T00:37:17.035Z,63540.65
2019-06-26T00:39:43.264Z,63549.64
2019-06-26T00:42:09.516Z,63556.43
2019-06-26T00:44:35.735Z,63560.27
2019-06-26T00:47:02.026Z,63561.49
2019-06-26T00:49:28.241Z,63562.39
2019-06-26T00:51:54.375Z,63562.16
2019-06-26T00:54:20.510Z,63565.01
2019-06-26T00:56:46.654Z,63566.43
2019-06-26T00:59:12.895Z,63568.83
2019-06-26T01:01:39.116Z,63570.05
2019-06-26T01:04:07.181Z,63572.58
2019-06-26T01:06:42.236Z,63582.56
2019-06-26T01:09:08.383Z,63580.35
2019-06-26T01:11:34.625Z,63576.51
2019-06-26T01:14:00.854Z,63577.61
2019-06-26T01:16:27.111Z,63578.49
2019-06-26T01:18:53.359Z,63583.53
2019-06-26T01:21:19.810Z,63581.02
2019-06-26T01:23:46.084Z,63584.54
2019-06-26T01:26:12.488Z,63582.88
2019-06-26T01:28:38.703Z,63586.93
2019-06-26T01:31:04.987Z,63582.13
2019-06-26T01:33:31.172Z,63584.20
2019-06-26T01:35:57.396Z,63584.95
2019-06-26T01:38:23.551Z,63582.56
2019-06-26T01:40:49.786Z,63583.09
2019-06-26T01:43:15.905Z,63586.93
2019-06-26T01:45:42.153Z,63584.75
2019-06-26T01:48:08.327Z,63587.28
2019-06-26T01:50:34.545Z,63585.30
2019-06-26T01:53:00.673Z,63584.86
2019-06-26T01:55:26.913Z,63592.09
2019-06-26T01:57:53.055Z,63588.59
2019-06-26T02:00:19.378Z,63594.87
2019-06-26T02:02:45.632Z,63597.61
2019-06-26T02:05:11.847Z,63598.48
2019-06-26T02:07:38.083Z,63602.53
2019-06-26T02:10:06.117Z,63603.75
2019-06-26T02:12:32.346Z,63610.21
2019-06-26T02:14:58.479Z,63613.30
2019-06-26T02:17:24.708Z,63609.71
2019-06-26T02:19:50.939Z,63611.99
2019-06-26T02:22:17.182Z,63610.68
2019-06-26T02:24:43.434Z,63616.82
2019-06-26T02:27:09.656Z,63620.77
2019-06-26T02:29:35.875Z,63622.30
2019-06-26T02:32:02.107Z,63618.15
2019-06-26T02:34:28.336Z,63626.46
2019-06-26T02:36:54.584Z,63625.38
2019-06-26T02:39:20.694Z,63627.91
2019-06-26T02:41:46.919Z,63628.12
2019-06-26T02:44:13.037Z,63622.09
2019-06-26T02:46:39.354Z,63623.17
2019-06-26T02:49:05.544Z,63622.75
2019-06-26T02:51:31.750Z,63630.10
2019-06-26T02:53:57.878Z,63638.22
2019-06-26T02:56:24.016Z,63633.27
2019-06-26T02:58:50.264Z,63630.44
2019-06-26T03:01:16.426Z,63640.20
2019-06-26T03:03:42.513Z,63644.58
2019-06-26T03:06:08.651Z,63655.56
2019-06-26T03:08:34.884Z,63662.92
2019-06-26T03:11:01.129Z,63655.69
2019-06-26T03:13:27.350Z,63658.43
2019-06-26T03:15:53.475Z,63658.32
2019-06-26T03:18:19.612Z,63641.75
2019-06-26T03:20:52.048Z,63640.11
2019-06-26T03:23:18.194Z,63646.02
2019-06-26T03:25:44.414Z,63656.66
2019-06-26T03:28:10.546Z,63655.69
2019-06-26T03:30:36.782Z,63664.35
2019-06-26T03:33:03.012Z,63665.78
2019-06-26T03:35:29.331Z,63676.76
2019-06-26T03:37:55.559Z,63673.03
2019-06-26T03:40:21.692Z,63685.32
2019-06-26T03:42:47.896Z,63691.25
2019-06-26T03:45:25.091Z,63688.30
2019-06-26T03:47:42.385Z,63687.75
2019-06-26T03:50:08.814Z,63695.64
2019-06-26T03:52:34.962Z,63702.23
2019-06-26T03:55:01.101Z,63708.40
2019-06-26T03:57:27.332Z,63729.71
2019-06-26T03:59:53.465Z,63734.77
2019-06-26T04:02:19.684Z,63750.37
2019-06-26T04:04:45.906Z,63761.23
2019-06-26T04:07:12.124Z,63760.60
2019-06-26T04:09:38.389Z,63774.57
2019-06-26T04:12:04.610Z,63784.46
2019-06-26T04:14:30.737Z,63784.46
2019-06-26T04:16:56.871Z,63788.86
2019-06-26T04:19:23.093Z,63803.15
2019-06-26T04:21:49.226Z,63813.59
2019-06-26T04:24:15.368Z,63828.12
2019-06-26T04:26:41.489Z,63828.12
2019-06-26T04:29:07.720Z,63830.86
2019-06-26T04:31:34.047Z,63843.04
2019-06-26T04:34:00.315Z,63847.70
2019-06-26T04:36:26.532Z,63862.55
2019-06-26T04:38:52.777Z,63876.09
2019-06-26T04:41:18.920Z,63891.57
2019-06-26T04:43:45.143Z,63894.11
2019-06-26T04:46:11.388Z,63899.52
2019-06-26T04:48:37.505Z,63912.27
2019-06-26T04:51:04.041Z,63921.10
2019-06-26T04:53:30.265Z,63920.55
2019-06-26T04:55:56.552Z,63951.36
2019-06-26T04:58:22.742Z,63960.95
2019-06-26T05:00:48.871Z,63962.93
2019-06-26T05:03:15.115Z,63975.47
2019-06-26T05:05:44.365Z,63973.94
2019-06-26T05:08:09.458Z,63979.46
2019-06-26T05:10:35.719Z,63999.48
2019-06-26T05:13:01.964Z,64010.39
2019-06-26T05:15:28.192Z,64016.68
2019-06-26T05:17:54.314Z,64026.14
2019-06-26T05:20:20.450Z,64031.21
2019-06-26T05:22:46.688Z,64035.73
2019-06-26T05:25:12.932Z,64027.70
2019-06-26T05:27:39.465Z,64025.93
2019-06-26T05:30:06.412Z,64028.68
2019-06-26T05:32:32.645Z,64040.48
2019-06-26T05:34:58.869Z,64041.46
2019-06-26T05:37:25.180Z,64071.14
2019-06-26T05:39:54.621Z,64071.14
2019-06-26T05:42:19.585Z,64097.58
2019-06-26T05:44:45.811Z,64131.98
2019-06-26T05:47:12.067Z,64256.70
2019-06-26T05:49:38.313Z,64256.70
2019-06-26T05:52:04.601Z,64367.70
2019-06-26T05:54:30.756Z,64370.81
2019-06-26T05:56:56.918Z,64362.52
2019-06-26T05:59:23.174Z,64370.60
2019-06-26T06:01:49.991Z,64456.50
2019-06-26T06:04:16.246Z,64494.45
2019-06-26T06:06:42.506Z,64590.41
2019-06-26T06:09:08.726Z,64664.43
2019-06-26T06:11:34.851Z,64695.68
2019-06-26T06:14:01.007Z,64749.11
2019-06-26T06:16:27.224Z,64798.81
2019-06-26T06:18:53.504Z,64855.28
2019-06-26T06:21:19.718Z,64887.50
2019-06-26T06:23:45.969Z,64884.39
2019-06-26T06:26:12.255Z,64900.59
2019-06-26T06:28:38.552Z,64902.47
2019-06-26T06:31:04.796Z,64974.44
2019-06-26T06:33:31.130Z,64957.77
2019-06-26T06:35:57.359Z,64981.90
2019-06-26T06:38:23.610Z,65058.82
2019-06-26T06:40:49.743Z,65091.61
2019-06-26T06:43:15.896Z,65125.62
2019-06-26T06:45:42.245Z,65133.87
2019-06-26T06:48:08.466Z,65141.35
2019-06-26T06:50:34.652Z,65118.30
2019-06-26T06:53:00.868Z,65136.99
2019-06-26T06:55:27.086Z,65158.68
2019-06-26T06:57:53.334Z,65124.28
2019-06-26T07:00:20.675Z,65104.25
2019-06-26T07:02:46.984Z,65110.52
2019-06-26T07:05:13.526Z,65047.23
2019-06-26T07:07:39.749Z,65100.61
2019-06-26T07:10:06.281Z,65038.24
2019-06-26T07:12:32.525Z,65009.67
2019-06-26T07:14:58.782Z,64946.01
2019-06-26T07:17:25.015Z,64919.13
2019-06-26T07:19:51.179Z,64910.24
2019-06-26T07:22:17.407Z,64885.05
2019-06-26T07:24:43.667Z,64923.58
2019-06-26T07:27:09.882Z,64913.81
2019-06-26T07:29:36.014Z,64993.42
2019-06-26T07:32:02.281Z,65059.13
2019-06-26T07:34:28.497Z,65057.48
2019-06-26T07:36:54.741Z,65047.57
2019-06-26T07:39:21.322Z,65106.06
2019-06-26T07:41:47.504Z,65158.68
2019-06-26T07:44:13.743Z,65141.66
2019-06-26T07:46:39.922Z,65130.32
2019-06-26T07:49:06.042Z,65077.16
2019-06-26T07:51:32.303Z,65132.54
2019-06-26T07:53:58.583Z,65125.29
2019-06-26T07:56:24.868Z,65176.16
2019-06-26T07:58:51.052Z,65249.16
2019-06-26T08:01:17.289Z,65222.69
2019-06-26T08:03:43.532Z,65242.15
2019-06-26T08:06:09.670Z,65264.98
2019-06-26T08:08:35.928Z,65295.07
2019-06-26T08:11:06.185Z,65269.10
2019-06-26T08:13:30.221Z,65259.87
2019-06-26T08:15:56.463Z,65177.03
2019-06-26T08:18:22.694Z,65138.67
2019-06-26T08:21:07.212Z,65116.96
2019-06-26T08:23:17.197Z,65109.73
2019-06-26T08:25:43.420Z,65068.13
2019-06-26T08:28:09.680Z,65050.34
2019-06-26T08:30:35.909Z,65052.15
2019-06-26T08:33:02.069Z,65011.34
2019-06-26T08:35:28.325Z,65002.45
2019-06-26T08:38:09.030Z,65015.68
2019-06-26T08:40:22.715Z,65024.45
2019-06-26T08:42:48.997Z,65014.12
2019-06-26T08:45:15.387Z,64995.88
2019-06-26T08:47:41.524Z,65032.77
2019-06-26T08:50:08.476Z,65086.71
2019-06-26T08:52:35.011Z,65092.48
2019-06-26T08:55:01.341Z,65167.03
2019-06-26T08:57:27.531Z,65155.02
2019-06-26T08:59:53.781Z,65176.16
2019-06-26T09:02:20.042Z,65152.00
2019-06-26T09:04:46.283Z,65159.01
2019-06-26T09:07:12.427Z,65151.31
2019-06-26T09:09:38.767Z,65155.90
2019-06-26T09:12:05.048Z,65220.70
2019-06-26T09:14:31.297Z,65278.02
2019-06-26T09:16:57.569Z,65256.08
2019-06-26T09:19:23.856Z,65265.76
2019-06-26T09:21:50.037Z,65290.83
2019-06-26T09:24:16.353Z,65210.53
2019-06-26T09:26:42.587Z,65178.15
2019-06-26T09:29:08.842Z,65144.21
2019-06-26T09:31:34.985Z,65107.05
2019-06-26T09:34:01.105Z,65112.60
2019-06-26T09:36:27.344Z,65082.48
2019-06-26T09:38:57.685Z,65019.78
2019-06-26T09:41:21.775Z,65023.11
2019-06-26T09:43:47.918Z,64958.64
2019-06-26T09:46:15.411Z,64877.59
2019-06-26T09:48:52.253Z,64914.91
2019-06-26T09:51:09.654Z,64950.21
2019-06-26T09:53:46.439Z,64928.90
2019-06-26T09:56:03.941Z,64882.82
2019-06-26T09:58:30.191Z,64860.38
2019-06-26T10:00:56.326Z,64882.59
2019-06-26T10:03:22.561Z,64914.91
2019-06-26T10:05:48.804Z,64908.59
2019-06-26T10:08:15.033Z,64928.12
2019-06-26T10:10:41.350Z,64924.36
2019-06-26T10:13:07.946Z,64941.66
2019-06-26T10:15:34.253Z,64959.11
2019-06-26T10:18:00.525Z,64990.46
2019-06-26T10:20:26.713Z,64959.76
2019-06-26T10:22:53.004Z,64957.21
2019-06-26T10:25:21.067Z,64962.89
2019-06-26T10:27:50.219Z,64967.22
2019-06-26T10:30:16.865Z,64988.88
2019-06-26T10:32:43.750Z,64957.77
2019-06-26T10:35:10.143Z,64954.21
2019-06-26T10:37:36.398Z,64919.35
2019-06-26T10:40:03.248Z,64927.46
2019-06-26T10:42:29.501Z,64905.58
2019-06-26T10:44:55.630Z,64908.90
2019-06-26T10:47:21.767Z,64891.39
2019-06-26T10:49:47.907Z,64895.69
2019-06-26T10:52:14.267Z,64922.55
2019-06-26T10:54:44.202Z,64923.77
2019-06-26T10:57:08.635Z,64936.43
2019-06-26T10:59:34.801Z,64888.71
2019-06-26T11:02:01.031Z,64897.15
2019-06-26T11:04:27.259Z,64878.49
2019-06-26T11:06:53.399Z,64866.71
2019-06-26T11:09:19.631Z,64854.84
2019-06-26T11:11:45.791Z,64862.15
2019-06-26T11:14:12.025Z,64840.73
2019-06-26T11:16:38.191Z,64809.90
2019-06-26T11:19:04.428Z,64825.44
2019-06-26T11:21:30.667Z,64789.59
2019-06-26T11:23:56.817Z,64788.37
2019-06-26T11:26:22.941Z,64796.50
2019-06-26T11:28:49.095Z,64776.84
2019-06-26T11:31:15.320Z,64784.37
2019-06-26T11:33:41.563Z,64779.93
2019-06-26T11:36:07.694Z,64752.22
2019-06-26T11:38:33.829Z,64748.34
2019-06-26T11:41:01.912Z,64747.68
2019-06-26T11:43:28.105Z,64747.56
2019-06-26T11:45:54.333Z,64738.27
2019-06-26T11:48:20.605Z,64757.09
2019-06-26T11:50:46.740Z,64765.52
2019-06-26T11:53:13.035Z,64764.64
2019-06-26T11:55:39.374Z,64698.10
2019-06-26T11:58:05.499Z,64691.46
2019-06-26T12:00:31.746Z,64687.12
2019-06-26T12:02:57.974Z,64675.94
2019-06-26T12:05:24.606Z,64651.79
2019-06-26T12:07:50.833Z,64656.66
2019-06-26T12:10:18.461Z,64675.94
2019-06-26T12:12:44.830Z,64650.46
2019-06-26T12:15:12.672Z,64646.70
2019-06-26T12:17:38.893Z,64620.11
2019-06-26T12:20:17.765Z,64610.15
2019-06-26T12:22:33.565Z,64592.54
2019-06-26T12:24:59.835Z,64603.71
2019-06-26T12:27:26.057Z,64634.29
2019-06-26T12:29:52.287Z,64635.17
2019-06-26T12:32:18.578Z,64640.04
2019-06-26T12:34:45.422Z,64640.71
2019-06-26T12:37:11.641Z,64621.23
2019-06-26T12:39:37.867Z,64628.96
2019-06-26T12:42:04.130Z,64655.55
2019-06-26T12:44:30.264Z,64633.40
2019-06-26T12:46:56.460Z,64628.43
2019-06-26T12:49:22.688Z,64643.38
2019-06-26T12:51:48.920Z,64613.47
2019-06-26T12:54:15.176Z,64591.74
2019-06-26T12:56:41.322Z,64584.98
2019-06-26T12:59:07.556Z,64557.32
2019-06-26T13:01:33.786Z,64544.48
2019-06-26T13:04:00.124Z,64509.63
2019-06-26T13:06:26.341Z,64502.52
2019-06-26T13:08:52.471Z,64497.43
2019-06-26T13:11:18.717Z,64497.88
2019-06-26T13:13:58.367Z,64486.15
2019-06-26T13:16:13.051Z,64470.21
2019-06-26T13:18:39.293Z,64477.85
2019-06-26T13:21:05.752Z,64477.85
2019-06-26T13:23:32.057Z,64472.86
2019-06-26T13:25:58.319Z,64451.54
2019-06-26T13:28:24.577Z,64452.96
2019-06-26T13:30:53.233Z,64451.75
2019-06-26T13:33:18.957Z,64437.27
2019-06-26T13:35:45.174Z,64451.54
2019-06-26T13:38:11.322Z,64463.59
2019-06-26T13:40:40.801Z,64450.21
2019-06-26T13:43:05.708Z,64459.04
2019-06-26T13:45:32.114Z,64467.90
2019-06-26T13:47:58.358Z,64466.47
2019-06-26T13:50:24.490Z,64471.77
2019-06-26T13:52:50.747Z,64472.54
2019-06-26T13:55:16.976Z,64463.93
2019-06-26T13:57:43.403Z,64455.07
2019-06-26T14:00:10.231Z,64465.36
2019-06-26T14:02:36.461Z,64473.32
2019-06-26T14:05:04.115Z,64481.72
2019-06-26T14:07:30.350Z,64514.28
2019-06-26T14:09:58.055Z,64517.80
2019-06-26T14:12:24.200Z,64516.48
2019-06-26T14:14:57.319Z,64487.24
2019-06-26T14:17:18.652Z,64526.00
2019-06-26T14:19:44.856Z,64540.17
2019-06-26T14:22:13.104Z,64539.49
2019-06-26T14:24:39.145Z,64561.52
2019-06-26T14:27:05.385Z,64601.26
2019-06-26T14:29:31.502Z,64618.44
2019-06-26T14:31:57.905Z,64632.30
2019-06-26T14:34:27.802Z,64644.47
2019-06-26T14:36:52.183Z,64642.27
2019-06-26T14:39:18.334Z,64630.41
2019-06-26T14:41:44.565Z,64640.59
2019-06-26T14:44:10.806Z,64653.00
2019-06-26T14:46:37.059Z,64652.45
2019-06-26T14:49:03.341Z,64645.59
2019-06-26T14:51:42.336Z,64648.45
2019-06-26T14:53:57.711Z,64660.76
2019-06-26T14:56:23.975Z,64665.86
2019-06-26T14:58:50.177Z,64656.33
2019-06-26T15:01:16.421Z,64633.08
2019-06-26T15:03:42.666Z,64646.46
2019-06-26T15:06:16.222Z,64647.38
2019-06-26T15:08:37.042Z,64648.04
2019-06-26T15:11:03.259Z,64635.50
2019-06-26T15:13:29.520Z,64628.96
2019-06-26T15:15:55.745Z,64618.68
2019-06-26T15:18:21.989Z,64610.25
2019-06-26T15:20:48.243Z,64613.59
2019-06-26T15:23:14.469Z,64603.05
2019-06-26T15:25:40.730Z,64599.49
2019-06-26T15:28:10.195Z,64573.59
2019-06-26T15:30:35.108Z,64583.45
2019-06-26T15:33:01.341Z,64583.77
2019-06-26T15:35:27.582Z,64579.36
2019-06-26T15:37:53.807Z,64571.05
2019-06-26T15:40:20.065Z,64576.02
2019-06-26T15:42:48.978Z,64575.48
2019-06-26T15:45:14.377Z,64560.30
2019-06-26T15:47:40.626Z,64536.73
2019-06-26T15:50:10.512Z,64533.86
2019-06-26T15:52:35.520Z,64524.57
2019-06-26T15:55:02.153Z,64519.25
2019-06-26T15:57:28.404Z,64534.18
2019-06-26T15:59:54.589Z,64538.61
2019-06-26T16:02:20.824Z,64551.89
2019-06-26T16:04:48.352Z,64548.14
2019-06-26T16:07:14.600Z,64541.71
2019-06-26T16:09:40.833Z,64529.87
2019-06-26T16:12:07.125Z,64526.77
2019-06-26T16:14:33.363Z,64532.42
2019-06-26T16:17:04.161Z,64542.83
2019-06-26T16:19:30.418Z,64534.84
2019-06-26T16:21:56.554Z,64536.41
2019-06-26T16:24:22.899Z,64535.95
2019-06-26T16:26:49.158Z,64545.81
2019-06-26T16:29:15.385Z,64524.89
2019-06-26T16:31:41.643Z,64507.40
2019-06-26T16:34:08.007Z,64505.18
2019-06-26T16:36:37.095Z,64485.81
2019-06-26T16:39:05.875Z,64480.85
2019-06-26T16:41:32.130Z,64480.61
2019-06-26T16:43:58.454Z,64463.81
2019-06-26T16:46:24.742Z,64457.39
2019-06-26T16:48:50.987Z,64458.05
2019-06-26T16:51:17.216Z,64465.91
2019-06-26T16:53:43.478Z,64470.00
2019-06-26T16:56:09.750Z,64449.87
2019-06-26T16:58:35.971Z,64445.68
2019-06-26T17:01:02.297Z,64425.33
2019-06-26T17:03:28.572Z,64418.15
2019-06-26T17:05:54.800Z,64419.69
2019-06-26T17:08:21.036Z,64405.53
2019-06-26T17:10:47.161Z,64409.19
2019-06-26T17:13:13.332Z,64381.75
2019-06-26T17:15:39.558Z,64378.87
2019-06-26T17:18:05.815Z,64376.56
2019-06-26T17:20:31.936Z,64365.62
2019-06-26T17:23:05.759Z,64361.08
2019-06-26T17:25:26.105Z,64358.54
2019-06-26T17:27:52.349Z,64356.55
2019-06-26T17:30:18.685Z,64336.68
2019-06-26T17:32:44.911Z,64334.69
2019-06-26T17:35:11.454Z,64336.33
2019-06-26T17:37:37.684Z,64332.68
2019-06-26T17:40:04.642Z,64322.53
2019-06-26T17:42:30.909Z,64320.44
2019-06-26T17:44:57.175Z,64308.62
2019-06-26T17:47:23.427Z,64312.36
2019-06-26T17:49:49.568Z,64304.75
2019-06-26T17:52:15.721Z,64286.72
2019-06-26T17:54:41.956Z,64278.99
2019-06-26T17:57:08.306Z,64277.88
2019-06-26T17:59:34.569Z,64267.84
2019-06-26T18:02:00.824Z,64261.99
2019-06-26T18:04:27.083Z,64266.41
2019-06-26T18:06:53.346Z,64268.61
2019-06-26T18:09:19.597Z,64254.26
2019-06-26T18:11:45.754Z,64242.11
2019-06-26T18:14:11.902Z,64229.53
2019-06-26T18:16:38.148Z,64218.50
2019-06-26T18:19:04.283Z,64218.73
2019-06-26T18:21:30.816Z,64214.52
2019-06-26T18:23:57.048Z,64214.52
2019-06-26T18:26:23.244Z,64220.59
2019-06-26T18:28:49.577Z,64219.05
2019-06-26T18:31:18.623Z,64219.05
2019-06-26T18:33:44.852Z,64218.73
2019-06-26T18:36:11.099Z,64211.77
2019-06-26T18:38:37.274Z,64208.68
2019-06-26T18:41:03.685Z,64196.66
2019-06-26T18:43:29.962Z,64196.66
2019-06-26T18:45:56.354Z,64188.70
2019-06-26T18:48:24.926Z,64191.13
2019-06-26T18:50:50.766Z,64177.24
2019-06-26T18:53:17.121Z,64168.72
2019-06-26T18:55:43.276Z,64155.15
2019-06-26T18:58:09.657Z,64157.03
2019-06-26T19:00:35.945Z,64156.26
2019-06-26T19:03:03.956Z,64148.54
2019-06-26T19:05:32.043Z,64145.76
2019-06-26T19:07:58.396Z,64145.76
2019-06-26T19:10:24.659Z,64149.20
2019-06-26T19:12:50.794Z,64149.20
2019-06-26T19:15:17.091Z,64147.64
2019-06-26T19:17:43.332Z,64151.07
2019-06-26T19:20:11.097Z,64145.66
2019-06-26T19:22:37.338Z,64146.98
2019-06-26T19:25:05.932Z,64146.32
2019-06-26T19:27:32.616Z,64136.50
2019-06-26T19:30:00.596Z,64122.51
2019-06-26T19:32:26.847Z,64122.51
2019-06-26T19:34:53.092Z,64118.65
2019-06-26T19:37:19.350Z,64114.23
2019-06-26T19:39:45.601Z,64112.36
2019-06-26T19:42:11.873Z,64103.55
2019-06-26T19:44:38.109Z,64103.55
2019-06-26T19:47:04.399Z,64088.11
2019-06-26T19:49:30.645Z,64088.11
2019-06-26T19:51:57.169Z,64083.70
2019-06-26T19:54:27.748Z,64075.98
2019-06-26T19:56:52.145Z,64080.84
2019-06-26T19:59:18.407Z,64072.68
2019-06-26T20:01:45.636Z,64062.77
2019-06-26T20:04:12.139Z,64054.17
2019-06-26T20:06:38.406Z,64045.77
2019-06-26T20:09:05.527Z,64029.47
2019-06-26T20:11:31.785Z,64018.11
2019-06-26T20:13:58.349Z,64014.04
2019-06-26T20:16:24.675Z,64000.38
2019-06-26T20:18:50.803Z,63992.11
2019-06-26T20:21:17.102Z,63975.82
2019-06-26T20:23:43.259Z,63969.53
2019-06-26T20:26:14.675Z,63953.23
2019-06-26T20:28:41.014Z,63936.29
2019-06-26T20:31:07.314Z,63928.81
2019-06-26T20:33:33.556Z,63927.04
2019-06-26T20:35:59.825Z,63918.68
2019-06-26T20:38:26.091Z,63909.63
2019-06-26T20:40:52.359Z,63896.64
2019-06-26T20:43:18.712Z,63886.19
2019-06-26T20:45:44.972Z,63872.55
2019-06-26T20:48:20.499Z,63867.93
2019-06-26T20:50:46.829Z,63851.55
2019-06-26T20:53:13.059Z,63838.89
2019-06-26T20:55:39.319Z,63830.63
2019-06-26T20:58:05.634Z,63825.14
2019-06-26T21:00:32.200Z,63818.76
2019-06-26T21:02:58.489Z,63810.64
2019-06-26T21:05:28.434Z,63801.39
2019-06-26T21:07:53.090Z,63799.85
2019-06-26T21:10:19.239Z,63795.34
2019-06-26T21:12:45.513Z,63789.73
2019-06-26T21:15:11.875Z,63785.35
2019-06-26T21:17:38.073Z,63780.29
2019-06-26T21:20:05.740Z,63772.15
2019-06-26T21:22:31.991Z,63766.87
2019-06-26T21:24:58.322Z,63685.32
2019-06-26T21:27:24.615Z,63751.25
2019-06-26T21:29:50.866Z,63760.26
2019-06-26T21:32:17.113Z,63751.46
2019-06-26T21:34:44.243Z,63748.71
2019-06-26T21:37:10.526Z,63747.50
2019-06-26T21:39:36.802Z,63743.99
2019-06-26T21:42:03.054Z,63738.07
2019-06-26T21:44:29.334Z,63720.15
2019-06-26T21:46:55.555Z,63720.49
2019-06-26T21:49:21.821Z,63710.59
2019-06-26T21:51:48.115Z,63713.45
2019-06-26T21:54:14.370Z,63704.55
2019-06-26T21:56:40.659Z,63690.18
2019-06-26T21:59:06.970Z,63684.02
2019-06-26T22:01:33.303Z,63676.55
2019-06-26T22:03:59.814Z,63683.48
2019-06-26T22:06:27.318Z,63686.64
2019-06-26T22:08:53.591Z,63683.35
2019-06-26T22:11:19.881Z,63675.88
2019-06-26T22:13:46.040Z,63665.78
2019-06-26T22:16:12.335Z,63662.69
2019-06-26T22:18:38.473Z,63654.24
2019-06-26T22:21:04.961Z,63654.80
2019-06-26T22:23:31.200Z,63649.09
2019-06-26T22:25:58.353Z,63640.87
2019-06-26T22:28:24.636Z,63636.27
2019-06-26T22:30:52.360Z,63638.22
2019-06-26T22:33:19.503Z,63628.46
2019-06-26T22:35:45.777Z,63617.05
2019-06-26T22:38:12.008Z,63611.53
2019-06-26T22:40:39.235Z,63595.65
2019-06-26T22:43:05.511Z,63589.81
2019-06-26T22:45:31.867Z,63583.23
2019-06-26T22:47:58.125Z,63586.40
2019-06-26T22:50:24.270Z,63592.02
2019-06-26T22:52:50.550Z,63596.41
2019-06-26T22:55:16.818Z,63602.78
2019-06-26T22:57:42.974Z,63608.26
2019-06-26T23:00:11.598Z,63611.23
2019-06-26T23:02:37.974Z,63610.01
2019-06-26T23:05:05.174Z,63606.07
2019-06-26T23:07:31.437Z,63599.82
2019-06-26T23:09:57.691Z,63605.06
2019-06-26T23:12:24.041Z,63594.22
2019-06-26T23:14:50.309Z,63600.69
2019-06-26T23:17:16.577Z,63601.22
2019-06-26T23:19:42.835Z,63592.64
2019-06-26T23:22:09.085Z,63574.55
2019-06-26T23:24:35.326Z,63566.76
2019-06-26T23:27:01.603Z,63562.39
2019-06-26T23:29:27.909Z,63560.61
2019-06-26T23:31:55.693Z,63557.77
2019-06-26T23:34:22.645Z,63559.51
2019-06-26T23:36:49.928Z,63567.10
2019-06-26T23:39:16.168Z,63571.70
2019-06-26T23:41:42.420Z,63567.86
2019-06-26T23:44:08.672Z,63569.17
2019-06-26T23:46:34.916Z,63567.43
2019-06-26T23:49:01.170Z,63580.47
2019-06-26T23:51:27.424Z,63585.41
2019-06-26T23:53:53.671Z,63586.84
2019-06-26T23:56:19.917Z,63586.73
2019-06-26T23:58:46.152Z,63580.26
